sensor_id;sensor_type;location;lat;lon;timestamp;P1;durP1;ratioP1;P2;durP2;ratioP2
27796;SDS011;15177;50.844;4.412;2024-03-08T05:32:32;45.23;;;24.67;;
27796;SDS011;15177;50.844;4.412;2024-03-08T05:34:58;45.57;;;25.40;;
27796;SDS011;15177;50.844;4.412;2024-03-08T05:37:24;42.93;;;25.23;;
27796;SDS011;15177;50.844;4.412;2024-03-08T05:39:52;43.07;;;22.87;;
27796;SDS011;15177;50.844;4.412;2024-03-08T05:42:19;43.50;;;24.53;;
27796;SDS011;15177;50.844;4.412;2024-03-08T05:44:45;44.30;;;27.27;;
27796;SDS011;15177;50.844;4.412;2024-03-08T05:47:14;44.13;;;24.60;;
27796;SDS011;15177;50.844;4.412;2024-03-08T05:49:43;48.07;;;25.90;;
27796;SDS011;15177;50.844;4.412;2024-03-08T05:52:11;43.53;;;24.53;;
27796;SDS011;15177;50.844;4.412;2024-03-08T05:54:40;39.47;;;23.27;;
27796;SDS011;15177;50.844;4.412;2024-03-08T05:57:08;45.33;;;26.00;;
27796;SDS011;15177;50.844;4.412;2024-03-08T05:59:34;46.80;;;25.07;;
27796;SDS011;15177;50.844;4.412;2024-03-08T06:02:00;46.17;;;24.97;;
27796;SDS011;15177;50.844;4.412;2024-03-08T06:04:30;43.13;;;24.63;;
27796;SDS011;15177;50.844;4.412;2024-03-08T06:06:56;45.00;;;25.57;;
27796;SDS011;15177;50.844;4.412;2024-03-08T06:09:24;47.27;;;24.97;;
27796;SDS011;15177;50.844;4.412;2024-03-08T06:11:52;45.10;;;25.53;;
27796;SDS011;15177;50.844;4.412;2024-03-08T06:14:18;46.20;;;26.33;;
27796;SDS011;15177;50.844;4.412;2024-03-08T06:16:45;49.70;;;25.70;;
27796;SDS011;15177;50.844;4.412;2024-03-08T06:19:15;47.20;;;26.30;;
27796;SDS011;15177;50.844;4.412;2024-03-08T06:21:43;47.63;;;24.83;;
27796;SDS011;15177;50.844;4.412;2024-03-08T06:24:11;48.60;;;25.23;;
27796;SDS011;15177;50.844;4.412;2024-03-08T06:26:42;45.93;;;25.33;;
27796;SDS011;15177;50.844;4.412;2024-03-08T06:29:08;48.37;;;25.53;;
27796;SDS011;15177;50.844;4.412;2024-03-08T06:31:34;44.67;;;25.53;;
27796;SDS011;15177;50.844;4.412;2024-03-08T06:34:03;54.77;;;25.40;;
27796;SDS011;15177;50.844;4.412;2024-03-08T06:36:32;43.27;;;24.67;;
27796;SDS011;15177;50.844;4.412;2024-03-08T06:39:02;44.20;;;24.73;;
27796;SDS011;15177;50.844;4.412;2024-03-08T06:41:36;49.97;;;23.97;;
27796;SDS011;15177;50.844;4.412;2024-03-08T06:44:02;42.07;;;24.03;;
27796;SDS011;15177;50.844;4.412;2024-03-08T06:46:37;43.87;;;24.87;;
27796;SDS011;15177;50.844;4.412;2024-03-08T06:49:03;49.27;;;25.20;;
27796;SDS011;15177;50.844;4.412;2024-03-08T06:51:35;44.77;;;26.17;;
27796;SDS011;15177;50.844;4.412;2024-03-08T06:54:01;46.63;;;25.40;;
27796;SDS011;15177;50.844;4.412;2024-03-08T06:56:34;45.70;;;24.33;;
27796;SDS011;15177;50.844;4.412;2024-03-08T06:59:00;41.17;;;23.97;;
27796;SDS011;15177;50.844;4.412;2024-03-08T07:01:29;49.80;;;25.07;;
27796;SDS011;15177;50.844;4.412;2024-03-08T07:04:00;49.07;;;24.70;;
27796;SDS011;15177;50.844;4.412;2024-03-08T07:06:30;40.07;;;23.57;;
27796;SDS011;15177;50.844;4.412;2024-03-08T07:08:58;43.47;;;23.83;;
27796;SDS011;15177;50.844;4.412;2024-03-08T07:11:24;39.33;;;22.53;;
27796;SDS011;15177;50.844;4.412;2024-03-08T07:13:50;42.77;;;23.13;;
27796;SDS011;15177;50.844;4.412;2024-03-08T07:16:16;41.90;;;24.03;;
27796;SDS011;15177;50.844;4.412;2024-03-08T07:18:41;40.17;;;21.43;;
27796;SDS011;15177;50.844;4.412;2024-03-08T07:21:11;33.53;;;19.73;;
27796;SDS011;15177;50.844;4.412;2024-03-08T07:24:02;35.07;;;20.67;;
27796;SDS011;15177;50.844;4.412;2024-03-08T07:30:21;36.60;;;19.90;;
27796;SDS011;15177;50.844;4.412;2024-03-08T07:33:07;38.77;;;21.87;;
27796;SDS011;15177;50.844;4.412;2024-03-08T07:35:36;31.90;;;19.17;;
27796;SDS011;15177;50.844;4.412;2024-03-08T07:38:08;35.73;;;18.70;;
27796;SDS011;15177;50.844;4.412;2024-03-08T07:40:37;32.33;;;19.87;;
27796;SDS011;15177;50.844;4.412;2024-03-08T07:43:08;31.37;;;18.50;;
27796;SDS011;15177;50.844;4.412;2024-03-08T07:45:37;38.03;;;20.47;;
27796;SDS011;15177;50.844;4.412;2024-03-08T07:48:05;36.73;;;20.17;;
27796;SDS011;15177;50.844;4.412;2024-03-08T07:50:42;33.43;;;20.00;;
27796;SDS011;15177;50.844;4.412;2024-03-08T07:53:08;33.10;;;20.90;;
27796;SDS011;15177;50.844;4.412;2024-03-08T07:55:45;32.03;;;18.73;;
27796;SDS011;15177;50.844;4.412;2024-03-08T07:58:12;32.50;;;19.20;;
27796;SDS011;15177;50.844;4.412;2024-03-08T08:00:40;38.47;;;21.77;;
27796;SDS011;15177;50.844;4.412;2024-03-08T08:03:08;36.77;;;21.07;;
27796;SDS011;15177;50.844;4.412;2024-03-08T08:05:37;30.87;;;19.57;;
27796;SDS011;15177;50.844;4.412;2024-03-08T08:08:07;31.07;;;19.47;;
27796;SDS011;15177;50.844;4.412;2024-03-08T08:10:35;31.80;;;19.43;;
27796;SDS011;15177;50.844;4.412;2024-03-08T08:13:03;32.63;;;18.90;;
27796;SDS011;15177;50.844;4.412;2024-03-08T08:15:29;33.87;;;19.03;;
27796;SDS011;15177;50.844;4.412;2024-03-08T08:17:55;28.48;;;18.88;;
27796;SDS011;15177;50.844;4.412;2024-03-08T08:20:21;35.72;;;19.48;;
27796;SDS011;15177;50.844;4.412;2024-03-08T08:22:48;26.30;;;18.42;;
27796;SDS011;15177;50.844;4.412;2024-03-08T08:25:16;33.53;;;19.00;;
27796;SDS011;15177;50.844;4.412;2024-03-08T08:27:49;33.40;;;19.20;;
27796;SDS011;15177;50.844;4.412;2024-03-08T08:40:53;28.33;;;18.70;;
27796;SDS011;15177;50.844;4.412;2024-03-08T08:43:19;33.22;;;17.92;;
27796;SDS011;15177;50.844;4.412;2024-03-08T08:49:05;29.67;;;18.00;;
27796;SDS011;15177;50.844;4.412;2024-03-08T08:51:37;29.80;;;18.25;;
27796;SDS011;15177;50.844;4.412;2024-03-08T08:54:03;27.27;;;18.63;;
27796;SDS011;15177;50.844;4.412;2024-03-08T08:56:31;27.88;;;17.33;;
27796;SDS011;15177;50.844;4.412;2024-03-08T08:58:57;30.35;;;17.17;;
27796;SDS011;15177;50.844;4.412;2024-03-08T09:01:26;32.97;;;18.25;;
27796;SDS011;15177;50.844;4.412;2024-03-08T09:07:30;25.58;;;16.60;;
27796;SDS011;15177;50.844;4.412;2024-03-08T09:09:57;32.03;;;18.30;;
27796;SDS011;15177;50.844;4.412;2024-03-08T09:12:23;26.63;;;17.95;;
27796;SDS011;15177;50.844;4.412;2024-03-08T09:14:50;30.48;;;18.90;;
27796;SDS011;15177;50.844;4.412;2024-03-08T09:17:19;29.13;;;17.73;;
27796;SDS011;15177;50.844;4.412;2024-03-08T09:19:47;29.60;;;17.25;;
27796;SDS011;15177;50.844;4.412;2024-03-08T09:22:13;30.77;;;17.35;;
27796;SDS011;15177;50.844;4.412;2024-03-08T09:24:49;31.02;;;16.33;;
27796;SDS011;15177;50.844;4.412;2024-03-08T09:27:25;29.55;;;16.48;;
27796;SDS011;15177;50.844;4.412;2024-03-08T09:29:57;28.27;;;18.08;;
27796;SDS011;15177;50.844;4.412;2024-03-08T09:32:26;26.95;;;17.27;;
27796;SDS011;15177;50.844;4.412;2024-03-08T09:34:52;28.63;;;17.27;;
27796;SDS011;15177;50.844;4.412;2024-03-08T09:37:17;26.70;;;17.27;;
27796;SDS011;15177;50.844;4.412;2024-03-08T09:40:01;26.63;;;16.52;;
27796;SDS011;15177;50.844;4.412;2024-03-08T09:42:30;30.08;;;17.00;;
27796;SDS011;15177;50.844;4.412;2024-03-08T09:44:57;25.55;;;16.67;;
27796;SDS011;15177;50.844;4.412;2024-03-08T09:50:48;27.00;;;16.95;;
27796;SDS011;15177;50.844;4.412;2024-03-08T09:53:14;31.58;;;17.48;;
27796;SDS011;15177;50.844;4.412;2024-03-08T09:55:51;26.20;;;15.88;;
27796;SDS011;15177;50.844;4.412;2024-03-08T09:58:17;29.48;;;16.25;;
27796;SDS011;15177;50.844;4.412;2024-03-08T10:01:18;23.42;;;16.25;;
27796;SDS011;15177;50.844;4.412;2024-03-08T10:03:47;27.75;;;17.42;;
27796;SDS011;15177;50.844;4.412;2024-03-08T10:06:30;22.98;;;14.93;;
27796;SDS011;15177;50.844;4.412;2024-03-08T10:11:58;24.05;;;15.38;;
27796;SDS011;15177;50.844;4.412;2024-03-08T10:14:27;26.15;;;16.45;;
27796;SDS011;15177;50.844;4.412;2024-03-08T10:20:18;27.25;;;16.40;;
27796;SDS011;15177;50.844;4.412;2024-03-08T10:22:44;26.75;;;15.82;;
27796;SDS011;15177;50.844;4.412;2024-03-08T10:25:11;24.88;;;15.57;;
27796;SDS011;15177;50.844;4.412;2024-03-08T10:27:45;27.33;;;15.45;;
27796;SDS011;15177;50.844;4.412;2024-03-08T10:30:15;29.73;;;17.23;;
27796;SDS011;15177;50.844;4.412;2024-03-08T10:32:45;28.92;;;16.25;;
27796;SDS011;15177;50.844;4.412;2024-03-08T10:35:11;28.27;;;16.50;;
27796;SDS011;15177;50.844;4.412;2024-03-08T10:40:25;23.67;;;15.55;;
27796;SDS011;15177;50.844;4.412;2024-03-08T10:46:21;26.88;;;14.98;;
27796;SDS011;15177;50.844;4.412;2024-03-08T10:49:01;23.15;;;14.98;;
27796;SDS011;15177;50.844;4.412;2024-03-08T10:54:52;31.90;;;16.95;;
27796;SDS011;15177;50.844;4.412;2024-03-08T10:57:22;25.35;;;14.90;;
27796;SDS011;15177;50.844;4.412;2024-03-08T10:59:50;28.75;;;16.20;;
27796;SDS011;15177;50.844;4.412;2024-03-08T11:02:19;21.60;;;14.48;;
27796;SDS011;15177;50.844;4.412;2024-03-08T11:05:01;26.20;;;16.55;;
27796;SDS011;15177;50.844;4.412;2024-03-08T11:07:35;29.85;;;17.95;;
27796;SDS011;15177;50.844;4.412;2024-03-08T11:10:07;27.48;;;16.50;;
27796;SDS011;15177;50.844;4.412;2024-03-08T11:13:12;25.02;;;16.13;;
27796;SDS011;15177;50.844;4.412;2024-03-08T11:21:59;29.83;;;16.53;;
27796;SDS011;15177;50.844;4.412;2024-03-08T11:24:26;33.27;;;17.73;;
27796;SDS011;15177;50.844;4.412;2024-03-08T11:27:03;29.10;;;17.37;;
27796;SDS011;15177;50.844;4.412;2024-03-08T11:32:11;31.40;;;16.67;;
27796;SDS011;15177;50.844;4.412;2024-03-08T11:34:40;29.13;;;17.93;;
27796;SDS011;15177;50.844;4.412;2024-03-08T11:37:18;27.50;;;17.93;;
27796;SDS011;15177;50.844;4.412;2024-03-08T11:39:49;30.70;;;17.30;;
27796;SDS011;15177;50.844;4.412;2024-03-08T11:45:45;31.60;;;16.60;;
27796;SDS011;15177;50.844;4.412;2024-03-08T11:48:14;29.23;;;17.87;;
27796;SDS011;15177;50.844;4.412;2024-03-08T11:50:42;27.83;;;16.07;;
27796;SDS011;15177;50.844;4.412;2024-03-08T11:53:24;26.90;;;16.53;;
27796;SDS011;15177;50.844;4.412;2024-03-08T11:55:54;27.93;;;16.83;;
27796;SDS011;15177;50.844;4.412;2024-03-08T11:58:29;31.47;;;19.60;;
27796;SDS011;15177;50.844;4.412;2024-03-08T12:01:07;27.40;;;17.47;;
27796;SDS011;15177;50.844;4.412;2024-03-08T12:03:41;29.97;;;17.47;;
27796;SDS011;15177;50.844;4.412;2024-03-08T12:06:11;25.83;;;16.20;;
27796;SDS011;15177;50.844;4.412;2024-03-08T12:08:40;29.83;;;15.97;;
27796;SDS011;15177;50.844;4.412;2024-03-08T12:11:08;30.73;;;16.87;;
27796;SDS011;15177;50.844;4.412;2024-03-08T12:13:40;29.13;;;18.23;;
27796;SDS011;15177;50.844;4.412;2024-03-08T12:16:12;30.43;;;16.77;;
27796;SDS011;15177;50.844;4.412;2024-03-08T12:18:38;26.40;;;17.23;;
27796;SDS011;15177;50.844;4.412;2024-03-08T12:21:07;33.60;;;18.13;;
27796;SDS011;15177;50.844;4.412;2024-03-08T12:23:35;28.50;;;17.03;;
27796;SDS011;15177;50.844;4.412;2024-03-08T12:26:13;26.27;;;15.97;;
27796;SDS011;15177;50.844;4.412;2024-03-08T12:28:44;30.77;;;17.70;;
27796;SDS011;15177;50.844;4.412;2024-03-08T12:31:14;29.77;;;16.57;;
27796;SDS011;15177;50.844;4.412;2024-03-08T12:33:55;27.00;;;16.10;;
27796;SDS011;15177;50.844;4.412;2024-03-08T12:36:26;27.20;;;16.03;;
27796;SDS011;15177;50.844;4.412;2024-03-08T12:38:59;26.97;;;16.47;;
27796;SDS011;15177;50.844;4.412;2024-03-08T12:41:30;24.23;;;14.50;;
27796;SDS011;15177;50.844;4.412;2024-03-08T12:43:57;26.43;;;15.00;;
27796;SDS011;15177;50.844;4.412;2024-03-08T12:46:23;27.07;;;15.97;;
27796;SDS011;15177;50.844;4.412;2024-03-08T12:48:55;27.43;;;15.80;;
27796;SDS011;15177;50.844;4.412;2024-03-08T12:51:27;27.93;;;16.17;;
27796;SDS011;15177;50.844;4.412;2024-03-08T12:53:54;25.60;;;16.97;;
27796;SDS011;15177;50.844;4.412;2024-03-08T12:56:33;26.00;;;15.70;;
27796;SDS011;15177;50.844;4.412;2024-03-08T12:59:00;29.60;;;16.47;;
27796;SDS011;15177;50.844;4.412;2024-03-08T13:01:32;27.47;;;15.43;;
27796;SDS011;15177;50.844;4.412;2024-03-08T13:04:01;26.37;;;15.27;;
27796;SDS011;15177;50.844;4.412;2024-03-08T13:06:28;26.63;;;15.13;;
27796;SDS011;15177;50.844;4.412;2024-03-08T13:08:56;26.10;;;15.57;;
27796;SDS011;15177;50.844;4.412;2024-03-08T13:11:23;29.93;;;15.87;;
27796;SDS011;15177;50.844;4.412;2024-03-08T13:13:53;29.07;;;16.83;;
27796;SDS011;15177;50.844;4.412;2024-03-08T13:16:19;25.47;;;16.23;;
27796;SDS011;15177;50.844;4.412;2024-03-08T13:18:46;27.70;;;16.70;;
27796;SDS011;15177;50.844;4.412;2024-03-08T13:21:14;29.13;;;15.77;;
27796;SDS011;15177;50.844;4.412;2024-03-08T13:23:45;27.17;;;15.33;;
27796;SDS011;15177;50.844;4.412;2024-03-08T13:26:14;27.30;;;15.53;;
27796;SDS011;15177;50.844;4.412;2024-03-08T13:28:46;28.63;;;15.90;;
27796;SDS011;15177;50.844;4.412;2024-03-08T13:31:23;30.00;;;16.23;;
27796;SDS011;15177;50.844;4.412;2024-03-08T13:33:53;25.10;;;15.27;;
27796;SDS011;15177;50.844;4.412;2024-03-08T13:36:23;30.97;;;16.23;;
27796;SDS011;15177;50.844;4.412;2024-03-08T13:38:54;25.37;;;14.70;;
27796;SDS011;15177;50.844;4.412;2024-03-08T13:41:20;25.90;;;15.23;;
27796;SDS011;15177;50.844;4.412;2024-03-08T13:43:49;23.97;;;14.93;;
27796;SDS011;15177;50.844;4.412;2024-03-08T13:46:16;25.13;;;15.00;;
27796;SDS011;15177;50.844;4.412;2024-03-08T13:48:51;22.63;;;14.43;;
27796;SDS011;15177;50.844;4.412;2024-03-08T13:51:19;25.20;;;13.67;;
27796;SDS011;15177;50.844;4.412;2024-03-08T13:53:48;27.03;;;16.13;;
27796;SDS011;15177;50.844;4.412;2024-03-08T13:56:14;29.10;;;14.57;;
27796;SDS011;15177;50.844;4.412;2024-03-08T13:58:46;25.33;;;15.70;;
27796;SDS011;15177;50.844;4.412;2024-03-08T14:01:13;27.60;;;14.77;;
27796;SDS011;15177;50.844;4.412;2024-03-08T14:03:39;23.70;;;14.40;;
27796;SDS011;15177;50.844;4.412;2024-03-08T14:06:08;28.47;;;14.93;;
27796;SDS011;15177;50.844;4.412;2024-03-08T14:08:36;27.40;;;15.83;;
27796;SDS011;15177;50.844;4.412;2024-03-08T14:11:03;26.70;;;15.43;;
27796;SDS011;15177;50.844;4.412;2024-03-08T14:13:43;23.20;;;13.80;;
27796;SDS011;15177;50.844;4.412;2024-03-08T14:16:11;23.73;;;14.88;;
27796;SDS011;15177;50.844;4.412;2024-03-08T14:18:41;22.90;;;14.47;;
27796;SDS011;15177;50.844;4.412;2024-03-08T14:21:09;24.27;;;13.97;;
27796;SDS011;15177;50.844;4.412;2024-03-08T14:23:37;24.70;;;15.20;;
27796;SDS011;15177;50.844;4.412;2024-03-08T14:26:06;29.57;;;15.83;;
27796;SDS011;15177;50.844;4.412;2024-03-08T14:28:32;26.70;;;14.50;;
27796;SDS011;15177;50.844;4.412;2024-03-08T14:30:58;25.57;;;14.63;;
27796;SDS011;15177;50.844;4.412;2024-03-08T14:33:36;24.33;;;14.23;;
27796;SDS011;15177;50.844;4.412;2024-03-08T14:36:02;24.43;;;14.13;;
27796;SDS011;15177;50.844;4.412;2024-03-08T14:38:31;25.03;;;13.87;;
27796;SDS011;15177;50.844;4.412;2024-03-08T14:40:57;23.27;;;14.40;;
27796;SDS011;15177;50.844;4.412;2024-03-08T14:43:24;23.13;;;14.17;;
27796;SDS011;15177;50.844;4.412;2024-03-08T14:45:51;20.10;;;13.07;;
27796;SDS011;15177;50.844;4.412;2024-03-08T14:48:20;29.03;;;14.93;;
27796;SDS011;15177;50.844;4.412;2024-03-08T14:50:46;22.67;;;13.33;;
27796;SDS011;15177;50.844;4.412;2024-03-08T14:53:12;28.37;;;14.07;;
27796;SDS011;15177;50.844;4.412;2024-03-08T14:55:40;24.23;;;14.60;;
27796;SDS011;15177;50.844;4.412;2024-03-08T14:58:07;22.70;;;13.60;;
27796;SDS011;15177;50.844;4.412;2024-03-08T15:00:34;22.77;;;13.97;;
27796;SDS011;15177;50.844;4.412;2024-03-08T15:03:00;26.27;;;15.07;;
27796;SDS011;15177;50.844;4.412;2024-03-08T15:05:29;25.30;;;13.95;;
27796;SDS011;15177;50.844;4.412;2024-03-08T15:07:58;24.38;;;13.00;;
27796;SDS011;15177;50.844;4.412;2024-03-08T15:10:34;29.75;;;14.43;;
27796;SDS011;15177;50.844;4.412;2024-03-08T15:13:01;22.03;;;14.50;;
27796;SDS011;15177;50.844;4.412;2024-03-08T15:15:39;26.67;;;14.77;;
27796;SDS011;15177;50.844;4.412;2024-03-08T15:18:07;27.03;;;14.30;;
27796;SDS011;15177;50.844;4.412;2024-03-08T15:20:33;26.98;;;14.50;;
27796;SDS011;15177;50.844;4.412;2024-03-08T15:22:59;27.20;;;13.67;;
27796;SDS011;15177;50.844;4.412;2024-03-08T15:25:31;25.73;;;13.00;;
27796;SDS011;15177;50.844;4.412;2024-03-08T15:28:02;22.30;;;13.73;;
27796;SDS011;15177;50.844;4.412;2024-03-08T15:30:38;22.73;;;13.63;;
27796;SDS011;15177;50.844;4.412;2024-03-08T15:33:13;22.80;;;14.60;;
27796;SDS011;15177;50.844;4.412;2024-03-08T15:35:41;25.30;;;14.77;;
27796;SDS011;15177;50.844;4.412;2024-03-08T15:38:13;26.13;;;14.47;;
27796;SDS011;15177;50.844;4.412;2024-03-08T15:40:41;24.90;;;13.40;;
27796;SDS011;15177;50.844;4.412;2024-03-08T15:43:07;28.73;;;13.40;;
27796;SDS011;15177;50.844;4.412;2024-03-08T15:45:36;23.40;;;14.17;;
27796;SDS011;15177;50.844;4.412;2024-03-08T15:48:02;22.92;;;14.45;;
27796;SDS011;15177;50.844;4.412;2024-03-08T15:50:30;26.13;;;14.90;;
27796;SDS011;15177;50.844;4.412;2024-03-08T15:52:56;24.30;;;13.88;;
27796;SDS011;15177;50.844;4.412;2024-03-08T15:55:24;28.65;;;14.30;;
27796;SDS011;15177;50.844;4.412;2024-03-08T15:57:53;26.00;;;13.95;;
27796;SDS011;15177;50.844;4.412;2024-03-08T16:00:22;22.73;;;13.77;;
27796;SDS011;15177;50.844;4.412;2024-03-08T16:03:10;24.00;;;13.37;;
27796;SDS011;15177;50.844;4.412;2024-03-08T16:05:37;27.60;;;14.70;;
27796;SDS011;15177;50.844;4.412;2024-03-08T16:08:06;23.20;;;14.00;;
27796;SDS011;15177;50.844;4.412;2024-03-08T16:10:35;26.40;;;14.57;;
27796;SDS011;15177;50.844;4.412;2024-03-08T16:13:01;23.30;;;14.50;;
27796;SDS011;15177;50.844;4.412;2024-03-08T16:15:31;22.67;;;13.60;;
27796;SDS011;15177;50.844;4.412;2024-03-08T16:17:57;22.83;;;13.87;;
27796;SDS011;15177;50.844;4.412;2024-03-08T16:20:23;23.50;;;14.23;;
27796;SDS011;15177;50.844;4.412;2024-03-08T16:22:53;25.27;;;14.10;;
27796;SDS011;15177;50.844;4.412;2024-03-08T16:25:22;23.77;;;13.35;;
27796;SDS011;15177;50.844;4.412;2024-03-08T16:27:48;23.97;;;14.10;;
27796;SDS011;15177;50.844;4.412;2024-03-08T16:30:22;27.13;;;14.70;;
27796;SDS011;15177;50.844;4.412;2024-03-08T16:32:48;23.37;;;14.53;;
27796;SDS011;15177;50.844;4.412;2024-03-08T16:35:18;28.83;;;13.70;;
27796;SDS011;15177;50.844;4.412;2024-03-08T16:37:46;21.30;;;12.60;;
27796;SDS011;15177;50.844;4.412;2024-03-08T16:40:12;24.70;;;14.27;;
27796;SDS011;15177;50.844;4.412;2024-03-08T16:42:46;25.63;;;14.20;;
27796;SDS011;15177;50.844;4.412;2024-03-08T16:45:18;23.53;;;13.33;;
27796;SDS011;15177;50.844;4.412;2024-03-08T16:47:44;23.40;;;13.20;;
27796;SDS011;15177;50.844;4.412;2024-03-08T16:50:11;28.80;;;14.27;;
27796;SDS011;15177;50.844;4.412;2024-03-08T16:52:41;22.43;;;12.73;;
27796;SDS011;15177;50.844;4.412;2024-03-08T16:55:11;25.83;;;13.73;;
27796;SDS011;15177;50.844;4.412;2024-03-08T16:57:41;25.10;;;14.00;;
27796;SDS011;15177;50.844;4.412;2024-03-08T17:00:19;25.47;;;14.83;;
27796;SDS011;15177;50.844;4.412;2024-03-08T17:03:10;24.13;;;13.43;;
27796;SDS011;15177;50.844;4.412;2024-03-08T17:05:38;23.60;;;13.60;;
27796;SDS011;15177;50.844;4.412;2024-03-08T17:08:13;27.87;;;13.33;;
27796;SDS011;15177;50.844;4.412;2024-03-08T17:10:41;27.03;;;14.83;;
27796;SDS011;15177;50.844;4.412;2024-03-08T17:13:07;20.73;;;12.90;;
27796;SDS011;15177;50.844;4.412;2024-03-08T17:15:37;23.10;;;12.83;;
27796;SDS011;15177;50.844;4.412;2024-03-08T17:18:03;27.63;;;13.97;;
27796;SDS011;15177;50.844;4.412;2024-03-08T17:20:33;20.70;;;12.97;;
27796;SDS011;15177;50.844;4.412;2024-03-08T17:23:03;24.43;;;13.13;;
27796;SDS011;15177;50.844;4.412;2024-03-08T17:25:33;22.30;;;12.67;;
27796;SDS011;15177;50.844;4.412;2024-03-08T17:28:02;23.03;;;13.33;;
27796;SDS011;15177;50.844;4.412;2024-03-08T17:30:29;24.80;;;12.77;;
27796;SDS011;15177;50.844;4.412;2024-03-08T17:32:58;22.83;;;12.77;;
27796;SDS011;15177;50.844;4.412;2024-03-08T17:35:30;25.40;;;13.63;;
27796;SDS011;15177;50.844;4.412;2024-03-08T17:37:59;22.13;;;13.13;;
27796;SDS011;15177;50.844;4.412;2024-03-08T17:40:26;23.00;;;12.67;;
27796;SDS011;15177;50.844;4.412;2024-03-08T17:42:56;27.17;;;13.57;;
27796;SDS011;15177;50.844;4.412;2024-03-08T17:45:31;24.17;;;12.33;;
27796;SDS011;15177;50.844;4.412;2024-03-08T17:47:58;22.60;;;12.43;;
27796;SDS011;15177;50.844;4.412;2024-03-08T17:50:24;19.70;;;12.37;;
27796;SDS011;15177;50.844;4.412;2024-03-08T17:52:54;22.77;;;12.80;;
27796;SDS011;15177;50.844;4.412;2024-03-08T17:55:23;25.30;;;12.70;;
27796;SDS011;15177;50.844;4.412;2024-03-08T17:57:51;22.77;;;13.80;;
27796;SDS011;15177;50.844;4.412;2024-03-08T18:00:21;22.13;;;13.47;;
27796;SDS011;15177;50.844;4.412;2024-03-08T18:02:54;26.27;;;13.00;;
27796;SDS011;15177;50.844;4.412;2024-03-08T18:05:23;24.80;;;13.07;;
27796;SDS011;15177;50.844;4.412;2024-03-08T18:08:02;28.70;;;14.33;;
27796;SDS011;15177;50.844;4.412;2024-03-08T18:10:29;25.43;;;13.83;;
27796;SDS011;15177;50.844;4.412;2024-03-08T18:12:57;23.73;;;13.67;;
27796;SDS011;15177;50.844;4.412;2024-03-08T18:15:24;26.80;;;13.63;;
27796;SDS011;15177;50.844;4.412;2024-03-08T18:17:56;21.60;;;13.07;;
27796;SDS011;15177;50.844;4.412;2024-03-08T18:20:24;25.13;;;13.87;;
27796;SDS011;15177;50.844;4.412;2024-03-08T18:23:00;25.43;;;14.00;;
27796;SDS011;15177;50.844;4.412;2024-03-08T18:25:27;22.97;;;13.63;;
27796;SDS011;15177;50.844;4.412;2024-03-08T18:27:54;21.97;;;13.07;;
27796;SDS011;15177;50.844;4.412;2024-03-08T18:30:24;25.20;;;13.60;;
27796;SDS011;15177;50.844;4.412;2024-03-08T18:32:50;25.70;;;14.23;;
27796;SDS011;15177;50.844;4.412;2024-03-08T18:35:19;21.90;;;13.50;;
27796;SDS011;15177;50.844;4.412;2024-03-08T18:37:46;26.17;;;14.53;;
27796;SDS011;15177;50.844;4.412;2024-03-08T18:40:17;25.57;;;13.83;;
27796;SDS011;15177;50.844;4.412;2024-03-08T18:43:04;28.30;;;14.27;;
27796;SDS011;15177;50.844;4.412;2024-03-08T18:45:31;26.73;;;15.50;;
27796;SDS011;15177;50.844;4.412;2024-03-08T18:48:06;25.33;;;13.33;;
27796;SDS011;15177;50.844;4.412;2024-03-08T18:50:32;25.50;;;13.97;;
27796;SDS011;15177;50.844;4.412;2024-03-08T18:53:00;25.13;;;14.23;;
27796;SDS011;15177;50.844;4.412;2024-03-08T18:55:27;26.50;;;14.30;;
27796;SDS011;15177;50.844;4.412;2024-03-08T18:57:54;25.37;;;13.63;;
27796;SDS011;15177;50.844;4.412;2024-03-08T19:00:25;26.97;;;15.07;;
27796;SDS011;15177;50.844;4.412;2024-03-08T19:03:05;31.63;;;14.90;;
27796;SDS011;15177;50.844;4.412;2024-03-08T19:05:37;28.73;;;15.80;;
27796;SDS011;15177;50.844;4.412;2024-03-08T19:08:06;33.23;;;14.60;;
27796;SDS011;15177;50.844;4.412;2024-03-08T19:10:34;26.63;;;14.30;;
27796;SDS011;15177;50.844;4.412;2024-03-08T19:13:02;27.03;;;15.50;;
27796;SDS011;15177;50.844;4.412;2024-03-08T19:15:29;27.27;;;14.80;;
27796;SDS011;15177;50.844;4.412;2024-03-08T19:18:01;27.83;;;14.57;;
27796;SDS011;15177;50.844;4.412;2024-03-08T19:20:30;28.87;;;15.53;;
27796;SDS011;15177;50.844;4.412;2024-03-08T19:23:01;34.73;;;15.57;;
27796;SDS011;15177;50.844;4.412;2024-03-08T19:25:28;29.60;;;15.63;;
27796;SDS011;15177;50.844;4.412;2024-03-08T19:27:58;27.00;;;15.57;;
27796;SDS011;15177;50.844;4.412;2024-03-08T19:30:25;33.10;;;16.77;;
27796;SDS011;15177;50.844;4.412;2024-03-08T19:33:04;27.93;;;16.50;;
27796;SDS011;15177;50.844;4.412;2024-03-08T19:35:42;29.03;;;16.87;;
27796;SDS011;15177;50.844;4.412;2024-03-08T19:38:08;31.50;;;16.27;;
27796;SDS011;15177;50.844;4.412;2024-03-08T19:40:40;34.83;;;17.10;;
27796;SDS011;15177;50.844;4.412;2024-03-08T19:43:10;28.47;;;16.00;;
27796;SDS011;15177;50.844;4.412;2024-03-08T19:45:36;29.30;;;15.37;;
27796;SDS011;15177;50.844;4.412;2024-03-08T19:48:12;26.73;;;16.23;;
27796;SDS011;15177;50.844;4.412;2024-03-08T19:50:41;27.87;;;16.57;;
27796;SDS011;15177;50.844;4.412;2024-03-08T19:53:10;27.20;;;16.43;;
27796;SDS011;15177;50.844;4.412;2024-03-08T19:55:36;27.67;;;15.13;;
27796;SDS011;15177;50.844;4.412;2024-03-08T19:58:04;30.80;;;15.83;;
27796;SDS011;15177;50.844;4.412;2024-03-08T20:00:31;26.47;;;16.57;;
27796;SDS011;15177;50.844;4.412;2024-03-08T20:02:58;30.70;;;16.57;;
27796;SDS011;15177;50.844;4.412;2024-03-08T20:05:26;30.67;;;17.03;;
27796;SDS011;15177;50.844;4.412;2024-03-08T20:07:59;27.53;;;14.93;;
27796;SDS011;15177;50.844;4.412;2024-03-08T20:10:29;29.37;;;16.00;;
27796;SDS011;15177;50.844;4.412;2024-03-08T20:13:01;31.00;;;16.10;;
27796;SDS011;15177;50.844;4.412;2024-03-08T20:15:27;29.87;;;15.70;;
27796;SDS011;15177;50.844;4.412;2024-03-08T20:17:54;27.40;;;15.67;;
27796;SDS011;15177;50.844;4.412;2024-03-08T20:20:20;27.07;;;15.10;;
27796;SDS011;15177;50.844;4.412;2024-03-08T20:22:47;28.80;;;16.50;;
27796;SDS011;15177;50.844;4.412;2024-03-08T20:25:21;33.33;;;16.27;;
27796;SDS011;15177;50.844;4.412;2024-03-08T20:27:51;33.80;;;16.37;;
27796;SDS011;15177;50.844;4.412;2024-03-08T20:30:19;30.43;;;16.50;;
27796;SDS011;15177;50.844;4.412;2024-03-08T20:33:02;30.20;;;16.20;;
27796;SDS011;15177;50.844;4.412;2024-03-08T20:35:30;26.47;;;15.20;;
27796;SDS011;15177;50.844;4.412;2024-03-08T20:37:58;26.40;;;15.57;;
27796;SDS011;15177;50.844;4.412;2024-03-08T20:40:25;27.47;;;16.03;;
27796;SDS011;15177;50.844;4.412;2024-03-08T20:42:57;29.33;;;15.97;;
27796;SDS011;15177;50.844;4.412;2024-03-08T20:45:27;32.20;;;16.47;;
27796;SDS011;15177;50.844;4.412;2024-03-08T20:47:52;28.10;;;15.30;;
27796;SDS011;15177;50.844;4.412;2024-03-08T20:50:20;28.20;;;16.23;;
27796;SDS011;15177;50.844;4.412;2024-03-08T20:52:49;29.23;;;16.33;;
27796;SDS011;15177;50.844;4.412;2024-03-08T20:55:18;26.80;;;16.20;;
27796;SDS011;15177;50.844;4.412;2024-03-08T20:57:50;31.10;;;17.17;;
